PSLKS TJPS-SBSG
Flight info
| Callsign | PSLKS |
|---|---|
| Flight time | N/A |
| Altitude | 41000 |
| Route | WLFRD2 OLGAH DCT TUUNA A555 ILURI UA555 BGI UM791 ESDAB UZ12 ISOBA |
| Aircraft | C700/M-SBDGHM1RWXY/LB2 |
Departure
| Time | 2026-04-23 12:42 |
|---|---|
| Airport | Mercedita International Airport (TJPS) |
Arrival
| Time | N/A |
|---|---|
| Airport | Rio Grande do Norte/São Gonçalo do Amarante–Governador Aluízio Alves International Airport (SBSG) |
| Time | Latitude | Longitude | Altitude | Speed | Heading |
|---|---|---|---|---|---|
| 2026-04-23 12:32 | 18.01006 | -66.56298 | 30 ft | 0 kts | 319° |
| 2026-04-23 12:38 | 18.01013 | -66.56293 | 30 ft | 1 kts | 79° |
| 2026-04-23 12:39 | 18.01012 | -66.56289 | 30 ft | 0 kts | 117° |
| 2026-04-23 12:39 | 18.00997 | -66.56279 | 30 ft | 5 kts | 145° |
| 2026-04-23 12:39 | 18.00964 | -66.56255 | 17 ft | 7 kts | 145° |
| 2026-04-23 12:39 | 18.00928 | -66.56220 | 13 ft | 8 kts | 116° |
| 2026-04-23 12:40 | 18.00907 | -66.56163 | 11 ft | 9 kts | 108° |
| 2026-04-23 12:40 | 18.00884 | -66.56087 | 10 ft | 13 kts | 108° |
| 2026-04-23 12:40 | 18.00846 | -66.56047 | 9 ft | 7 kts | 195° |
| 2026-04-23 12:40 | 18.00790 | -66.56065 | 8 ft | 10 kts | 193° |
| 2026-04-23 12:41 | 18.00765 | -66.56076 | 8 ft | 0 kts | 242° |
| 2026-04-23 12:41 | 18.00780 | -66.56137 | 9 ft | 32 kts | 288° |
| 2026-04-23 12:41 | 18.00933 | -66.56643 | 34 ft | 112 kts | 288° |
| 2026-04-23 12:42 | 18.01241 | -66.57632 | 211 ft | 161 kts | 288° |
| 2026-04-23 12:42 | 18.01561 | -66.58858 | 768 ft | 189 kts | 275° |
| 2026-04-23 12:42 | 18.01063 | -66.60157 | 1576 ft | 207 kts | 219° |
| 2026-04-23 12:42 | 17.99716 | -66.60614 | 2691 ft | 211 kts | 173° |
| 2026-04-23 12:43 | 17.98358 | -66.59920 | 3610 ft | 229 kts | 131° |
| 2026-04-23 12:43 | 17.97714 | -66.58357 | 4584 ft | 241 kts | 97° |
| 2026-04-23 12:43 | 17.97526 | -66.56614 | 5809 ft | 247 kts | 97° |
| 2026-04-23 12:43 | 17.97164 | -66.54828 | 6991 ft | 254 kts | 104° |
| 2026-04-23 12:44 | 17.96688 | -66.53020 | 8135 ft | 259 kts | 99° |
| 2026-04-23 12:44 | 17.96622 | -66.51077 | 9005 ft | 279 kts | 88° |
| 2026-04-23 12:44 | 17.96684 | -66.48974 | 9926 ft | 291 kts | 88° |
| 2026-04-23 12:44 | 17.96740 | -66.46798 | 10769 ft | 310 kts | 88° |
| 2026-04-23 12:45 | 17.96795 | -66.44455 | 11545 ft | 327 kts | 88° |
| 2026-04-23 12:45 | 17.96853 | -66.42056 | 12726 ft | 333 kts | 88° |
| 2026-04-23 12:45 | 17.96914 | -66.39592 | 13760 ft | 342 kts | 88° |
| 2026-04-23 12:45 | 17.96975 | -66.37070 | 14704 ft | 349 kts | 88° |
| 2026-04-23 12:46 | 17.97037 | -66.34498 | 15652 ft | 356 kts | 88° |
| 2026-04-23 12:46 | 17.97099 | -66.31875 | 16587 ft | 362 kts | 88° |
| 2026-04-23 12:46 | 17.97163 | -66.29206 | 17517 ft | 369 kts | 88° |
| 2026-04-23 12:46 | 17.97227 | -66.26524 | 18409 ft | 376 kts | 88° |
| 2026-04-23 12:47 | 17.97293 | -66.23763 | 19167 ft | 382 kts | 88° |
| 2026-04-23 12:47 | 17.97358 | -66.20949 | 19932 ft | 389 kts | 88° |
| 2026-04-23 12:47 | 17.97425 | -66.18085 | 20663 ft | 396 kts | 88° |
| 2026-04-23 12:47 | 17.97492 | -66.15170 | 21397 ft | 403 kts | 88° |
| 2026-04-23 12:48 | 17.97561 | -66.12206 | 22120 ft | 409 kts | 88° |
| 2026-04-23 12:48 | 17.97630 | -66.09191 | 22820 ft | 416 kts | 88° |
| 2026-04-23 12:48 | 17.97676 | -66.07171 | 23286 ft | 421 kts | 88° |
| 2026-04-23 12:48 | 17.97769 | -66.03065 | 24116 ft | 429 kts | 88° |
| 2026-04-23 12:49 | 17.97839 | -65.99919 | 24738 ft | 433 kts | 88° |
| 2026-04-23 12:49 | 17.97909 | -65.96741 | 25359 ft | 437 kts | 88° |
| 2026-04-23 12:49 | 17.97981 | -65.93530 | 25987 ft | 442 kts | 89° |
| 2026-04-23 12:49 | 17.98045 | -65.90287 | 26621 ft | 446 kts | 90° |
| 2026-04-23 12:50 | 17.97761 | -65.87031 | 27223 ft | 450 kts | 102° |
| 2026-04-23 12:50 | 17.97106 | -65.83806 | 27818 ft | 454 kts | 104° |
| 2026-04-23 12:50 | 17.96440 | -65.80596 | 28390 ft | 458 kts | 104° |
| 2026-04-23 12:50 | 17.95769 | -65.77311 | 28966 ft | 462 kts | 104° |
| 2026-04-23 12:51 | 17.95093 | -65.74000 | 29536 ft | 467 kts | 104° |
| 2026-04-23 12:51 | 17.94405 | -65.70653 | 30105 ft | 471 kts | 104° |
| 2026-04-23 12:51 | 17.93708 | -65.67276 | 30596 ft | 475 kts | 104° |
| 2026-04-23 12:51 | 17.93007 | -65.63870 | 31081 ft | 479 kts | 104° |
| 2026-04-23 12:52 | 17.92300 | -65.60435 | 31547 ft | 483 kts | 104° |
| 2026-04-23 12:52 | 17.91586 | -65.56971 | 31968 ft | 488 kts | 105° |
| 2026-04-23 12:52 | 17.91108 | -65.54658 | 32256 ft | 490 kts | 105° |
| 2026-04-23 12:52 | 17.90147 | -65.50004 | 32820 ft | 495 kts | 105° |
| 2026-04-23 12:53 | 17.89414 | -65.46459 | 33252 ft | 498 kts | 105° |
| 2026-04-23 12:53 | 17.88681 | -65.42913 | 33854 ft | 496 kts | 105° |
| 2026-04-23 12:53 | 17.87948 | -65.39372 | 34346 ft | 496 kts | 106° |
| 2026-04-23 12:53 | 17.87462 | -65.37033 | 34663 ft | 496 kts | 106° |
| 2026-04-23 12:54 | 17.86728 | -65.33496 | 35163 ft | 495 kts | 106° |
| 2026-04-23 12:54 | 17.85995 | -65.29965 | 35666 ft | 495 kts | 106° |
| 2026-04-23 12:54 | 17.85262 | -65.26438 | 36159 ft | 494 kts | 106° |
| 2026-04-23 12:54 | 17.84529 | -65.22914 | 36629 ft | 494 kts | 106° |
| 2026-04-23 12:55 | 17.83796 | -65.19395 | 37079 ft | 493 kts | 106° |
| 2026-04-23 12:55 | 17.82826 | -65.14743 | 37640 ft | 493 kts | 106° |
| 2026-04-23 12:55 | 17.82330 | -65.12369 | 37912 ft | 492 kts | 106° |
| 2026-04-23 12:55 | 17.81599 | -65.08869 | 38294 ft | 492 kts | 106° |
| 2026-04-23 12:56 | 17.80866 | -65.05365 | 38662 ft | 491 kts | 106° |
| 2026-04-23 12:56 | 17.80144 | -65.01911 | 38961 ft | 491 kts | 106° |
| 2026-04-23 12:56 | 17.79412 | -64.98417 | 39265 ft | 490 kts | 106° |
| 2026-04-23 12:56 | 17.78682 | -64.94935 | 39570 ft | 487 kts | 106° |
| 2026-04-23 12:57 | 17.77955 | -64.91468 | 39875 ft | 486 kts | 106° |
| 2026-04-23 12:57 | 17.77229 | -64.88016 | 40127 ft | 485 kts | 106° |
| 2026-04-23 12:57 | 17.76503 | -64.84560 | 40370 ft | 484 kts | 106° |
| 2026-04-23 12:57 | 17.75609 | -64.81175 | 40585 ft | 478 kts | 115° |
| 2026-04-23 12:58 | 17.74185 | -64.78061 | 40821 ft | 469 kts | 127° |
| 2026-04-23 12:58 | 17.72282 | -64.75330 | 41017 ft | 460 kts | 138° |
| 2026-04-23 12:58 | 17.67777 | -64.70635 | 41042 ft | 463 kts | 143° |
| 2026-04-23 12:59 | 17.63403 | -64.65546 | 41030 ft | 478 kts | 134° |
| 2026-04-23 12:59 | 17.59243 | -64.60038 | 41025 ft | 483 kts | 137° |
| 2026-04-23 13:00 | 17.54758 | -64.54721 | 41032 ft | 491 kts | 136° |
| 2026-04-23 13:00 | 17.50372 | -64.49153 | 41037 ft | 498 kts | 136° |
| 2026-04-23 13:01 | 17.45828 | -64.43626 | 41035 ft | 504 kts | 136° |
| 2026-04-23 13:01 | 17.41319 | -64.38011 | 41035 ft | 508 kts | 136° |
| 2026-04-23 13:02 | 17.36750 | -64.32399 | 41020 ft | 505 kts | 136° |
| 2026-04-23 13:02 | 17.32219 | -64.26805 | 41017 ft | 502 kts | 135° |
| 2026-04-23 13:03 | 17.27703 | -64.21250 | 41013 ft | 501 kts | 136° |
| 2026-04-23 13:03 | 17.23210 | -64.15723 | 41017 ft | 504 kts | 135° |
| 2026-04-23 13:04 | 17.18655 | -64.10123 | 41021 ft | 506 kts | 135° |
| 2026-04-23 13:04 | 17.14090 | -64.04516 | 41017 ft | 505 kts | 135° |
| 2026-04-23 13:05 | 17.09546 | -63.98940 | 41014 ft | 502 kts | 135° |
| 2026-04-23 13:05 | 17.05028 | -63.93401 | 41019 ft | 499 kts | 135° |
| 2026-04-23 13:06 | 16.98243 | -63.85091 | 41016 ft | 503 kts | 135° |
| 2026-04-23 13:07 | 16.93693 | -63.79522 | 41018 ft | 503 kts | 135° |
| 2026-04-23 13:07 | 16.89160 | -63.73980 | 41009 ft | 500 kts | 135° |
| 2026-04-23 13:08 | 16.84656 | -63.68478 | 41011 ft | 498 kts | 135° |
| 2026-04-23 13:08 | 16.80141 | -63.62969 | 41013 ft | 500 kts | 135° |
| 2026-04-23 13:09 | 16.75607 | -63.57438 | 41016 ft | 502 kts | 135° |
| 2026-04-23 13:09 | 16.71054 | -63.51889 | 41020 ft | 504 kts | 135° |
| 2026-04-23 13:10 | 16.66509 | -63.46353 | 41018 ft | 501 kts | 135° |
| 2026-04-23 13:10 | 16.61979 | -63.40842 | 41011 ft | 499 kts | 135° |
| 2026-04-23 13:11 | 16.57467 | -63.35357 | 41013 ft | 497 kts | 135° |
| 2026-04-23 13:11 | 16.52989 | -63.29917 | 41018 ft | 498 kts | 135° |
| 2026-04-23 13:12 | 16.48476 | -63.24438 | 41017 ft | 498 kts | 135° |
| 2026-04-23 13:12 | 16.43957 | -63.18957 | 41017 ft | 499 kts | 135° |
| 2026-04-23 13:13 | 16.39434 | -63.13476 | 41016 ft | 499 kts | 135° |
| 2026-04-23 13:13 | 16.34907 | -63.07993 | 41017 ft | 499 kts | 135° |
| 2026-04-23 13:14 | 16.30377 | -63.02512 | 41018 ft | 499 kts | 135° |
| 2026-04-23 13:14 | 16.25845 | -62.97031 | 41018 ft | 499 kts | 135° |
| 2026-04-23 13:15 | 16.21309 | -62.91551 | 41021 ft | 500 kts | 135° |
| 2026-04-23 13:15 | 16.16776 | -62.86078 | 41021 ft | 500 kts | 135° |
| 2026-04-23 13:16 | 16.12236 | -62.80601 | 41019 ft | 499 kts | 135° |
| 2026-04-23 13:16 | 16.07715 | -62.75151 | 41015 ft | 496 kts | 135° |
| 2026-04-23 13:17 | 16.03222 | -62.69739 | 41009 ft | 493 kts | 135° |
| 2026-04-23 13:17 | 15.98720 | -62.64322 | 41013 ft | 496 kts | 135° |
| 2026-04-23 13:18 | 15.94197 | -62.58881 | 41021 ft | 499 kts | 135° |
| 2026-04-23 13:18 | 15.89686 | -62.53459 | 41024 ft | 499 kts | 135° |
| 2026-04-23 13:19 | 15.85163 | -62.48026 | 41013 ft | 495 kts | 135° |
| 2026-04-23 13:19 | 15.80671 | -62.42636 | 41011 ft | 491 kts | 135° |
| 2026-04-23 13:20 | 15.76203 | -62.37279 | 41013 ft | 491 kts | 135° |
| 2026-04-23 13:20 | 15.71715 | -62.31902 | 41018 ft | 494 kts | 135° |
| 2026-04-23 13:21 | 15.67201 | -62.26496 | 41020 ft | 496 kts | 135° |
| 2026-04-23 13:21 | 15.62684 | -62.21091 | 41017 ft | 494 kts | 135° |
| 2026-04-23 13:22 | 15.58194 | -62.15723 | 41014 ft | 491 kts | 135° |
| 2026-04-23 13:22 | 15.53734 | -62.10394 | 41012 ft | 489 kts | 135° |
| 2026-04-23 13:23 | 15.49258 | -62.05051 | 41015 ft | 492 kts | 135° |
| 2026-04-23 13:23 | 15.44757 | -61.99681 | 41017 ft | 493 kts | 135° |
| 2026-04-23 13:24 | 15.40269 | -61.94328 | 41010 ft | 489 kts | 135° |
| 2026-04-23 13:24 | 15.35819 | -61.89028 | 41013 ft | 486 kts | 135° |
| 2026-04-23 13:25 | 15.31370 | -61.83732 | 41017 ft | 488 kts | 135° |
| 2026-04-23 13:25 | 15.26898 | -61.78413 | 41017 ft | 491 kts | 135° |
| 2026-04-23 13:26 | 15.22407 | -61.73073 | 41017 ft | 492 kts | 135° |
| 2026-04-23 13:26 | 15.17924 | -61.67746 | 41016 ft | 489 kts | 135° |
| 2026-04-23 13:27 | 15.13464 | -61.62453 | 41013 ft | 487 kts | 135° |
| 2026-04-23 13:27 | 15.09016 | -61.57176 | 40990 ft | 487 kts | 135° |
| 2026-04-23 13:28 | 15.04556 | -61.51890 | 41021 ft | 489 kts | 135° |
| 2026-04-23 13:28 | 15.00075 | -61.46581 | 41027 ft | 491 kts | 135° |
| 2026-04-23 13:29 | 14.95585 | -61.41264 | 41031 ft | 490 kts | 135° |
| 2026-04-23 13:29 | 14.91114 | -61.35975 | 41015 ft | 487 kts | 135° |
| 2026-04-23 13:30 | 14.86693 | -61.30749 | 41010 ft | 485 kts | 135° |
| 2026-04-23 13:30 | 14.82259 | -61.25510 | 41008 ft | 484 kts | 135° |
| 2026-04-23 13:31 | 14.77808 | -61.20257 | 41006 ft | 487 kts | 135° |
| 2026-04-23 13:31 | 14.73329 | -61.14971 | 41017 ft | 490 kts | 135° |
| 2026-04-23 13:32 | 14.68857 | -61.09698 | 41019 ft | 485 kts | 135° |
| 2026-04-23 13:32 | 14.64436 | -61.04489 | 41010 ft | 481 kts | 135° |
| 2026-04-23 13:33 | 14.60012 | -60.99282 | 41019 ft | 482 kts | 135° |
| 2026-04-23 13:33 | 14.55591 | -60.94078 | 41021 ft | 483 kts | 135° |
| 2026-04-23 13:34 | 14.51156 | -60.88865 | 41000 ft | 483 kts | 135° |
| 2026-04-23 13:34 | 14.46726 | -60.83658 | 40999 ft | 482 kts | 135° |
| 2026-04-23 13:35 | 14.42307 | -60.78469 | 41000 ft | 481 kts | 135° |
| 2026-04-23 13:35 | 14.37892 | -60.73287 | 40996 ft | 480 kts | 135° |
| 2026-04-23 13:36 | 14.33487 | -60.68122 | 41002 ft | 479 kts | 135° |
| 2026-04-23 13:36 | 14.29093 | -60.62972 | 40999 ft | 478 kts | 135° |
| 2026-04-23 13:37 | 14.24709 | -60.57836 | 40998 ft | 477 kts | 135° |
| 2026-04-23 13:37 | 14.20319 | -60.52699 | 40999 ft | 479 kts | 135° |
| 2026-04-23 13:38 | 14.15911 | -60.47541 | 41009 ft | 481 kts | 135° |
| 2026-04-23 13:38 | 14.11473 | -60.42354 | 41008 ft | 483 kts | 135° |
| 2026-04-23 13:39 | 14.07039 | -60.37172 | 41008 ft | 481 kts | 135° |
| 2026-04-23 13:39 | 14.02629 | -60.32023 | 41008 ft | 478 kts | 135° |
| 2026-04-23 13:40 | 13.98236 | -60.26898 | 41015 ft | 477 kts | 135° |
| 2026-04-23 13:40 | 13.93824 | -60.21754 | 41015 ft | 481 kts | 135° |
| 2026-04-23 13:41 | 13.89388 | -60.16583 | 41016 ft | 482 kts | 135° |
| 2026-04-23 13:41 | 13.84991 | -60.11462 | 41012 ft | 479 kts | 135° |
| 2026-04-23 13:42 | 13.80585 | -60.06335 | 41014 ft | 477 kts | 135° |
| 2026-04-23 13:42 | 13.76157 | -60.01185 | 41012 ft | 478 kts | 135° |
| 2026-04-23 13:43 | 13.71772 | -59.96087 | 41015 ft | 480 kts | 135° |
| 2026-04-23 13:43 | 13.67327 | -59.90923 | 41007 ft | 482 kts | 135° |
| 2026-04-23 13:44 | 13.62883 | -59.85762 | 41004 ft | 481 kts | 135° |
| 2026-04-23 13:44 | 13.59202 | -59.81491 | 40995 ft | 479 kts | 135° |
| 2026-04-23 13:45 | 13.54795 | -59.76379 | 40993 ft | 477 kts | 135° |
| 2026-04-23 13:45 | 13.50399 | -59.71285 | 40993 ft | 477 kts | 135° |
| 2026-04-23 13:46 | 13.45981 | -59.66168 | 40992 ft | 480 kts | 135° |
| 2026-04-23 13:46 | 13.41539 | -59.61025 | 40996 ft | 482 kts | 135° |
| 2026-04-23 13:47 | 13.37097 | -59.55885 | 40993 ft | 479 kts | 135° |
| 2026-04-23 13:47 | 13.32683 | -59.50782 | 40985 ft | 475 kts | 135° |
| 2026-04-23 13:48 | 13.28283 | -59.45699 | 40984 ft | 477 kts | 135° |
| 2026-04-23 13:48 | 13.23860 | -59.40591 | 40987 ft | 480 kts | 135° |
| 2026-04-23 13:49 | 13.19454 | -59.35504 | 40993 ft | 477 kts | 135° |
| 2026-04-23 13:49 | 13.15061 | -59.30437 | 40990 ft | 473 kts | 135° |
| 2026-04-23 13:50 | 13.10674 | -59.25381 | 40990 ft | 475 kts | 135° |
| 2026-04-23 13:50 | 13.06264 | -59.20299 | 41001 ft | 478 kts | 135° |
| 2026-04-23 13:51 | 13.01836 | -59.15200 | 41010 ft | 479 kts | 135° |
| 2026-04-23 13:51 | 12.97411 | -59.10107 | 41017 ft | 477 kts | 135° |
| 2026-04-23 13:52 | 12.93010 | -59.05046 | 41012 ft | 474 kts | 135° |
| 2026-04-23 13:52 | 12.88622 | -59.00002 | 41015 ft | 475 kts | 135° |
| 2026-04-23 13:53 | 12.84213 | -58.94938 | 41019 ft | 477 kts | 135° |
| 2026-04-23 13:53 | 12.79819 | -58.89891 | 41022 ft | 477 kts | 135° |
| 2026-04-23 13:54 | 12.75382 | -58.84800 | 41021 ft | 475 kts | 135° |
| 2026-04-23 13:54 | 12.70999 | -58.79772 | 41018 ft | 473 kts | 135° |
| 2026-04-23 13:55 | 12.66642 | -58.74779 | 41013 ft | 474 kts | 135° |
| 2026-04-23 13:55 | 12.62239 | -58.69736 | 41017 ft | 476 kts | 135° |
| 2026-04-23 13:56 | 12.57813 | -58.64667 | 41023 ft | 478 kts | 135° |
| 2026-04-23 13:56 | 12.53389 | -58.59604 | 41022 ft | 476 kts | 135° |
| 2026-04-23 13:57 | 12.48988 | -58.54571 | 41018 ft | 473 kts | 135° |
| 2026-04-23 13:57 | 12.44602 | -58.49558 | 41015 ft | 473 kts | 135° |
| 2026-04-23 13:58 | 12.40197 | -58.44527 | 41018 ft | 476 kts | 135° |
| 2026-04-23 13:58 | 12.35776 | -58.39478 | 41021 ft | 476 kts | 135° |
| 2026-04-23 13:59 | 12.31365 | -58.34443 | 41016 ft | 474 kts | 135° |
| 2026-04-23 13:59 | 12.26970 | -58.29431 | 41010 ft | 471 kts | 135° |
| 2026-04-23 14:00 | 12.23336 | -58.25288 | 41010 ft | 472 kts | 135° |
| 2026-04-23 14:00 | 12.18225 | -58.19466 | 41015 ft | 475 kts | 135° |
| 2026-04-23 14:01 | 12.13809 | -58.14436 | 41016 ft | 475 kts | 135° |
| 2026-04-23 14:01 | 12.09416 | -58.09436 | 41013 ft | 471 kts | 135° |
| 2026-04-23 14:02 | 12.05051 | -58.04472 | 41007 ft | 469 kts | 135° |
| 2026-04-23 14:02 | 12.00678 | -57.99502 | 41007 ft | 472 kts | 135° |
| 2026-04-23 14:03 | 11.96279 | -57.94501 | 41011 ft | 474 kts | 135° |
| 2026-04-23 14:03 | 11.91867 | -57.89490 | 41014 ft | 473 kts | 135° |
| 2026-04-23 14:04 | 11.87481 | -57.84512 | 41012 ft | 470 kts | 135° |
| 2026-04-23 14:04 | 11.83119 | -57.79564 | 41003 ft | 469 kts | 135° |
| 2026-04-23 14:05 | 11.78745 | -57.74604 | 41007 ft | 472 kts | 135° |
| 2026-04-23 14:05 | 11.74338 | -57.69609 | 41004 ft | 475 kts | 135° |
| 2026-04-23 14:06 | 11.69908 | -57.64590 | 41007 ft | 475 kts | 135° |
| 2026-04-23 14:06 | 11.65491 | -57.59589 | 41004 ft | 472 kts | 135° |
| 2026-04-23 14:07 | 11.61141 | -57.54666 | 41003 ft | 470 kts | 135° |
| 2026-04-23 14:07 | 11.54556 | -57.47221 | 41001 ft | 473 kts | 135° |
| 2026-04-23 14:08 | 11.50144 | -57.42235 | 41003 ft | 474 kts | 135° |
| 2026-04-23 14:08 | 11.45716 | -57.37233 | 41002 ft | 475 kts | 135° |
| 2026-04-23 14:09 | 11.41313 | -57.32260 | 40998 ft | 469 kts | 135° |
| 2026-04-23 14:09 | 11.36955 | -57.27343 | 41000 ft | 468 kts | 135° |
| 2026-04-23 14:10 | 11.32575 | -57.22404 | 41003 ft | 472 kts | 135° |
| 2026-04-23 14:10 | 11.28162 | -57.17427 | 41008 ft | 472 kts | 135° |
| 2026-04-23 14:11 | 11.23767 | -57.12476 | 41006 ft | 470 kts | 135° |
| 2026-04-23 14:11 | 11.19398 | -57.07555 | 41004 ft | 467 kts | 134° |
| 2026-04-23 14:12 | 11.15048 | -57.02659 | 41001 ft | 467 kts | 135° |
| 2026-04-23 14:12 | 11.10671 | -56.97734 | 41003 ft | 470 kts | 134° |
| 2026-04-23 14:13 | 11.06271 | -56.92785 | 41008 ft | 472 kts | 134° |
| 2026-04-23 14:13 | 11.01886 | -56.87855 | 41006 ft | 467 kts | 134° |
| 2026-04-23 14:14 | 10.97548 | -56.82982 | 41000 ft | 464 kts | 134° |
| 2026-04-23 14:14 | 10.93211 | -56.78112 | 41002 ft | 464 kts | 134° |
| 2026-04-23 14:15 | 10.88875 | -56.73245 | 40998 ft | 464 kts | 134° |
| 2026-04-23 14:15 | 10.84541 | -56.68382 | 40998 ft | 464 kts | 134° |
| 2026-04-23 14:16 | 10.80207 | -56.63522 | 41000 ft | 464 kts | 134° |
| 2026-04-23 14:16 | 10.75902 | -56.58697 | 40997 ft | 463 kts | 134° |
| 2026-04-23 14:17 | 10.71569 | -56.53842 | 40994 ft | 463 kts | 134° |
| 2026-04-23 14:17 | 10.67409 | -56.48827 | 41002 ft | 466 kts | 131° |
| 2026-04-23 14:18 | 10.63261 | -56.43733 | 41007 ft | 469 kts | 131° |
| 2026-04-23 14:18 | 10.59090 | -56.38617 | 41010 ft | 469 kts | 131° |
| 2026-04-23 14:19 | 10.54938 | -56.33522 | 41005 ft | 467 kts | 131° |
| 2026-04-23 14:19 | 10.50811 | -56.28464 | 41003 ft | 464 kts | 131° |
| 2026-04-23 14:20 | 10.46684 | -56.23405 | 41001 ft | 466 kts | 131° |
| 2026-04-23 14:20 | 10.42533 | -56.18322 | 41005 ft | 468 kts | 131° |
| 2026-04-23 14:21 | 10.38363 | -56.13216 | 41007 ft | 470 kts | 131° |
| 2026-04-23 14:21 | 10.34199 | -56.08119 | 41005 ft | 467 kts | 131° |
| 2026-04-23 14:22 | 10.30072 | -56.03070 | 41003 ft | 461 kts | 131° |
| 2026-04-23 14:22 | 10.25981 | -55.98069 | 40997 ft | 461 kts | 131° |
| 2026-04-23 14:23 | 10.21862 | -55.93036 | 41001 ft | 465 kts | 131° |
| 2026-04-23 14:23 | 10.17720 | -55.87975 | 41004 ft | 465 kts | 131° |
| 2026-04-23 14:24 | 10.13595 | -55.82938 | 41002 ft | 462 kts | 131° |
| 2026-04-23 14:24 | 10.09495 | -55.77934 | 40996 ft | 460 kts | 131° |
| 2026-04-23 14:25 | 10.05445 | -55.72994 | 40999 ft | 462 kts | 131° |
| 2026-04-23 14:25 | 10.01319 | -55.67962 | 41005 ft | 465 kts | 131° |
| 2026-04-23 14:26 | 9.97174 | -55.62910 | 41000 ft | 466 kts | 131° |
| 2026-04-23 14:26 | 9.93037 | -55.57869 | 40998 ft | 464 kts | 131° |
| 2026-04-23 14:27 | 9.88915 | -55.52849 | 41000 ft | 462 kts | 131° |
| 2026-04-23 14:27 | 9.84828 | -55.47874 | 40996 ft | 463 kts | 132° |
| 2026-04-23 14:28 | 9.80659 | -55.42802 | 41001 ft | 467 kts | 132° |
| 2026-04-23 14:28 | 9.76525 | -55.37773 | 41004 ft | 467 kts | 132° |
| 2026-04-23 14:29 | 9.72380 | -55.32734 | 40999 ft | 464 kts | 132° |
| 2026-04-23 14:29 | 9.68259 | -55.27725 | 40995 ft | 462 kts | 132° |
| 2026-04-23 14:30 | 9.64134 | -55.22716 | 40997 ft | 464 kts | 132° |
| 2026-04-23 14:30 | 9.59994 | -55.17688 | 41003 ft | 464 kts | 132° |
| 2026-04-23 14:31 | 9.56539 | -55.13495 | 41001 ft | 461 kts | 132° |
| 2026-04-23 14:31 | 9.52440 | -55.08521 | 40997 ft | 459 kts | 132° |
| 2026-04-23 14:32 | 9.48366 | -55.03581 | 40997 ft | 462 kts | 132° |
| 2026-04-23 14:32 | 9.44236 | -54.98574 | 41001 ft | 464 kts | 132° |
| 2026-04-23 14:33 | 9.40101 | -54.93563 | 41001 ft | 462 kts | 132° |
| 2026-04-23 14:33 | 9.35987 | -54.88579 | 40999 ft | 460 kts | 132° |
| 2026-04-23 14:34 | 9.31891 | -54.83620 | 40997 ft | 459 kts | 132° |
| 2026-04-23 14:34 | 9.27786 | -54.78653 | 41001 ft | 461 kts | 132° |
| 2026-04-23 14:35 | 9.23661 | -54.73662 | 41000 ft | 464 kts | 132° |
| 2026-04-23 14:35 | 9.19502 | -54.68690 | 41000 ft | 461 kts | 132° |
| 2026-04-23 14:36 | 9.15360 | -54.63749 | 41000 ft | 459 kts | 132° |
| 2026-04-23 14:36 | 9.11240 | -54.58827 | 40996 ft | 458 kts | 132° |
| 2026-04-23 14:37 | 9.07108 | -54.53901 | 40997 ft | 460 kts | 132° |
| 2026-04-23 14:37 | 9.02981 | -54.48975 | 41001 ft | 463 kts | 132° |
| 2026-04-23 14:38 | 8.98804 | -54.43997 | 41005 ft | 464 kts | 132° |
| 2026-04-23 14:38 | 8.94644 | -54.39039 | 41002 ft | 461 kts | 132° |
| 2026-04-23 14:39 | 8.90502 | -54.34105 | 40996 ft | 458 kts | 132° |
| 2026-04-23 14:39 | 8.86367 | -54.29180 | 40996 ft | 461 kts | 132° |
| 2026-04-23 14:40 | 8.82207 | -54.24228 | 40996 ft | 463 kts | 132° |
| 2026-04-23 14:40 | 8.78050 | -54.19281 | 40998 ft | 466 kts | 132° |
| 2026-04-23 14:41 | 8.73865 | -54.14302 | 40998 ft | 463 kts | 132° |
| 2026-04-23 14:41 | 8.69702 | -54.09353 | 40994 ft | 461 kts | 132° |
| 2026-04-23 14:42 | 8.65558 | -54.04427 | 40994 ft | 460 kts | 132° |
| 2026-04-23 14:42 | 8.61396 | -53.99483 | 40999 ft | 463 kts | 132° |
| 2026-04-23 14:43 | 8.57262 | -53.94460 | 41001 ft | 466 kts | 131° |
| 2026-04-23 14:43 | 8.53135 | -53.89460 | 40999 ft | 460 kts | 132° |
| 2026-04-23 14:44 | 8.49041 | -53.84506 | 40993 ft | 459 kts | 132° |
| 2026-04-23 14:44 | 8.44939 | -53.79538 | 40995 ft | 462 kts | 132° |
| 2026-04-23 14:45 | 8.40807 | -53.74541 | 41005 ft | 464 kts | 132° |
| 2026-04-23 14:45 | 8.36667 | -53.69530 | 40998 ft | 463 kts | 132° |
| 2026-04-23 14:46 | 8.32544 | -53.64546 | 40995 ft | 462 kts | 132° |
| 2026-04-23 14:46 | 8.28426 | -53.59569 | 40994 ft | 461 kts | 132° |
| 2026-04-23 14:47 | 8.24317 | -53.54604 | 40992 ft | 460 kts | 132° |
| 2026-04-23 14:47 | 8.20201 | -53.49632 | 40993 ft | 464 kts | 131° |
| 2026-04-23 14:48 | 8.16061 | -53.44633 | 40999 ft | 469 kts | 131° |